Romney, IN (47981)

12:43 PM EDT on June 03, 2015 (GMT -0400)
Lafayette, Indiana area | | Change Station
CLOSE
Current Station
Personal Weather Station
Location: Romney, IN
Elevation: 755 ft
Nearby Weather Stations
Active Advisory: Flood Warning

Elev 755 ft 40.26 °N, 86.89 °W | Updated 4 minutes ago

Mostly Cloudy
Mostly Cloudy
67.2 °F
Feels Like 67.2 °F
N
2.0
Wind Variable Wind from South
Gusts 4.0 mph

Today
High -- | Low -- °F
--% Chance of Precip.
Yesterday
High -- | Low -- °F
Precip. -- in
6:19 AM 9:12 PM
Full, 99% visible
Pressure 30.09 in
Visibility 9.0 miles
Clouds Mostly Cloudy 2600 ft
Dew Point 59 °F
Humidity 76%
Rainfall 0.00 in
Snow Depth Not available.
UV 5 out of 12
Pollen 7.90 out of 12
Air Quality Not available.
Flu Activity No Activity
METAR KLAF 031554Z VRB05KT 9SM BKN026 19/13 A3009 RMK AO2 SLP188 T01890128

More Conditions Fewer Conditions

Pressure 30.09 in
Visibility 9.0 miles
Clouds Mostly Cloudy 2600 ft
Dew Point 59 °F
Humidity 76%
Rainfall 0.00 in
Snow Depth Not available.
UV 5 out of 12
Pollen 7.90 out of 12
Air Quality Not available.
Flu Activity No Activity
METAR KLAF 031554Z VRB05KT 9SM BKN026 19/13 A3009 RMK AO2 SLP188 T01890128

More Conditions Fewer Conditions

10-Day Weather Forecast

×

Almanac

Astronomy

Jun. 03, 2015 Rise Set
Actual Time
Civil Twilight
Nautical Twilight
Astronomical Twilight
Moon
Length of Visible Light
Length of Day
Tomorrow will be .
, % of the Moon is Illuminated

Today's Extremes

State Highs State Lows

Community

WunderPhotos

Upload Photos

1,826,256 photos uploaded!

WunderBlogs® & News

Nearby

Air Quality

  Air Quality AQ Index Pollutant
Not available.

Snow Depth

Station Depth Elevation

Earthquake Activity

City Distance Mag. Time & Date
Minimum magnitude displayed is 2.5.

Coastal Water Temperatures

Place Temperature

Stations

Nearby Weather Stations

Station Location Temp. Windchill Dew Point Humidity Wind Precip. Elev Updated Type
                   
Flood Warning
Statement as of 9:35 AM EDT on June 03, 2015

The Flood Warning continues for
the Wabash River at Lafayette.
* Until late tonight.
* At 9:01 am Wednesday the stage was 11.6 feet.
* Flood stage is 11.0 feet.
* Minor flooding is occurring and minor flooding is forecast.
* Forecast... the river will continue to fall to below flood stage by
late this afternoon.
* At 12.0 feet... high water affects a few low river Cabins and County
roads.


Lat... Lon 4056 8673 4048 8688 4040 8709 4033 8709
      4040 8688 4054 8670